createdAt,value
2023-02-21T00:00:52.391Z,19.25
2023-02-21T00:03:37.577Z,14.50
2023-02-21T00:06:23.364Z,22.80
2023-02-21T00:09:08.440Z,15.73
2023-02-21T00:11:59.940Z,15.10
2023-02-21T00:14:45.225Z,20.52
2023-02-21T00:17:30.386Z,21.98
2023-02-21T00:20:17.978Z,15.25
2023-02-21T00:23:04.362Z,19.90
2023-02-21T00:25:49.557Z,14.30
2023-02-21T00:28:36.559Z,16.23
2023-02-21T00:31:23.210Z,17.40
2023-02-21T00:34:10.189Z,15.60
2023-02-21T00:36:56.069Z,16.63
2023-02-21T00:39:41.343Z,17.35
2023-02-21T00:42:26.618Z,18.10
2023-02-21T00:45:13.516Z,25.20
2023-02-21T00:47:58.828Z,23.88
2023-02-21T00:50:44.104Z,17.02
2023-02-21T00:53:29.217Z,21.90
2023-02-21T00:56:14.528Z,25.65
2023-02-21T00:59:00.396Z,25.52
2023-02-21T01:01:47.351Z,27.90
2023-02-21T01:04:32.626Z,26.45
2023-02-21T01:07:18.397Z,15.90
2023-02-21T01:10:03.733Z,23.88
2023-02-21T01:12:49.006Z,16.45
2023-02-21T01:15:34.758Z,16.50
2023-02-21T01:18:21.663Z,23.00
2023-02-21T01:21:06.918Z,19.65
2023-02-21T01:23:52.872Z,15.63
2023-02-21T01:26:38.191Z,17.65
2023-02-21T01:29:23.942Z,18.70
2023-02-21T01:32:09.865Z,15.77
2023-02-21T01:34:59.381Z,25.85
2023-02-21T01:37:44.610Z,15.57
2023-02-21T01:40:33.877Z,28.90
2023-02-21T01:43:20.731Z,16.95
2023-02-21T01:46:08.764Z,14.85
2023-02-21T01:48:55.581Z,23.90
2023-02-21T01:51:49.884Z,17.88
2023-02-21T01:54:37.137Z,15.80
2023-02-21T01:57:24.470Z,18.50
2023-02-21T02:00:12.302Z,16.63
2023-02-21T02:03:10.610Z,18.73
2023-02-21T02:05:57.530Z,17.88
2023-02-21T02:08:48.104Z,19.48
2023-02-21T02:11:45.808Z,18.08
2023-02-21T02:14:31.388Z,18.00
2023-02-21T02:17:06.674Z,18.75
2023-02-21T02:20:06.098Z,19.30
2023-02-21T02:23:02.687Z,17.08
2023-02-21T02:25:59.252Z,15.25
2023-02-21T02:28:50.742Z,15.13
2023-02-21T02:31:36.767Z,17.08
2023-02-21T02:34:35.400Z,19.42
2023-02-21T02:37:13.348Z,20.83
2023-02-21T02:39:48.915Z,18.02
2023-02-21T02:42:27.549Z,17.08
2023-02-21T02:45:02.218Z,20.00
2023-02-21T02:47:34.256Z,19.27
2023-02-21T02:50:06.712Z,19.33
2023-02-21T02:52:38.826Z,18.73
2023-02-21T02:55:29.777Z,20.42
2023-02-21T02:57:58.534Z,19.80
2023-02-21T03:00:26.942Z,18.90
2023-02-21T03:03:20.382Z,21.48
2023-02-21T03:06:01.188Z,24.42
2023-02-21T03:08:38.634Z,20.60
2023-02-21T03:11:16.135Z,22.40
2023-02-21T03:13:49.522Z,20.38
2023-02-21T03:16:25.752Z,20.60
2023-02-21T03:18:59.708Z,18.98
2023-02-21T03:21:30.570Z,21.52
2023-02-21T03:24:03.112Z,24.02
2023-02-21T03:26:34.971Z,19.90
2023-02-21T03:29:18.046Z,19.63
2023-02-21T03:31:51.656Z,21.58
2023-02-21T03:34:19.930Z,24.40
2023-02-21T03:36:49.504Z,24.55
2023-02-21T03:39:20.929Z,25.42
2023-02-21T03:41:49.045Z,27.83
2023-02-21T03:44:18.141Z,26.65
2023-02-21T03:46:46.552Z,27.00
2023-02-21T03:49:14.734Z,26.52
2023-02-21T03:51:42.929Z,28.83
2023-02-21T03:54:10.915Z,28.15
2023-02-21T03:56:45.390Z,30.90
2023-02-21T03:59:20.747Z,26.70
2023-02-21T04:01:48.881Z,22.17
2023-02-21T04:04:18.102Z,22.77
2023-02-21T04:06:49.215Z,26.35
2023-02-21T04:09:17.351Z,24.63
2023-02-21T04:11:47.481Z,24.20
2023-02-21T04:14:15.771Z,25.17
2023-02-21T04:16:44.479Z,32.17
2023-02-21T04:19:12.480Z,33.03
2023-02-21T04:21:40.769Z,27.92
2023-02-21T04:24:10.637Z,32.33
2023-02-21T04:26:38.728Z,33.55
2023-02-21T04:29:08.451Z,35.47
2023-02-21T04:31:36.608Z,27.80
2023-02-21T04:34:12.154Z,29.80
2023-02-21T04:36:42.582Z,27.42
2023-02-21T04:39:11.139Z,30.38
2023-02-21T04:41:39.620Z,32.42
2023-02-21T04:44:09.343Z,31.63
2023-02-21T04:46:37.407Z,29.10
2023-02-21T04:49:05.379Z,30.40
2023-02-21T04:51:33.313Z,29.95
2023-02-21T04:54:01.285Z,30.52
2023-02-21T04:56:29.423Z,33.55
2023-02-21T04:58:57.864Z,28.08
2023-02-21T05:01:29.261Z,28.15
2023-02-21T05:03:57.412Z,28.58
2023-02-21T05:06:27.206Z,28.95
2023-02-21T05:08:55.273Z,29.58
2023-02-21T05:11:23.882Z,30.13
2023-02-21T05:13:52.248Z,31.48
2023-02-21T05:16:20.935Z,27.92
2023-02-21T05:18:50.584Z,31.42
2023-02-21T05:21:20.188Z,29.17
2023-02-21T05:23:55.818Z,29.67
2023-02-21T05:26:26.211Z,30.85
2023-02-21T05:28:54.802Z,31.40
2023-02-21T05:31:22.883Z,29.33
2023-02-21T05:33:52.300Z,29.50
2023-02-21T05:36:20.308Z,29.10
2023-02-21T05:38:49.681Z,31.27
2023-02-21T05:41:18.248Z,32.25
2023-02-21T05:43:46.685Z,32.13
2023-02-21T05:46:23.400Z,32.15
2023-02-21T05:48:53.529Z,34.80
2023-02-21T05:51:21.868Z,29.60
2023-02-21T05:53:50.639Z,31.48
2023-02-21T05:56:19.345Z,31.27
2023-02-21T05:58:47.366Z,30.42
2023-02-21T06:01:15.674Z,29.45
2023-02-21T06:03:43.907Z,30.13
2023-02-21T06:06:16.238Z,29.27
2023-02-21T06:08:45.768Z,27.42
2023-02-21T06:11:14.681Z,27.52
2023-02-21T06:13:43.268Z,29.38
2023-02-21T06:16:11.190Z,28.83
2023-02-21T06:18:39.279Z,29.80
2023-02-21T06:21:07.413Z,29.85
2023-02-21T06:23:36.731Z,25.77
2023-02-21T06:26:04.802Z,27.63
2023-02-21T06:28:33.388Z,26.98
2023-02-21T06:31:01.342Z,28.65
2023-02-21T06:33:29.287Z,29.48
2023-02-21T06:35:57.516Z,29.75
2023-02-21T06:38:25.678Z,30.38
2023-02-21T06:40:55.099Z,28.42
2023-02-21T06:43:23.116Z,30.60
2023-02-21T06:45:51.090Z,29.30
2023-02-21T06:48:19.579Z,27.23
2023-02-21T06:50:47.612Z,30.75
2023-02-21T06:53:15.710Z,25.70
2023-02-21T06:55:43.648Z,28.30
2023-02-21T06:58:13.012Z,26.67
2023-02-21T07:00:40.986Z,24.25
2023-02-21T07:03:09.029Z,27.75
2023-02-21T07:05:38.636Z,23.10
2023-02-21T07:08:06.821Z,24.25
2023-02-21T07:10:34.868Z,23.23
2023-02-21T07:13:02.854Z,23.13
2023-02-21T07:15:32.591Z,23.10
2023-02-21T07:18:00.479Z,23.10
2023-02-21T07:20:28.603Z,23.40
2023-02-21T07:22:56.686Z,22.30
2023-02-21T07:25:24.984Z,24.33
2023-02-21T07:27:53.865Z,21.67
2023-02-21T07:30:22.092Z,22.20
2023-02-21T07:32:51.444Z,22.23
2023-02-21T07:35:19.547Z,22.60
2023-02-21T07:37:47.469Z,22.73
2023-02-21T07:40:15.351Z,23.83
2023-02-21T07:42:44.724Z,23.75
2023-02-21T07:45:13.369Z,23.40
2023-02-21T07:47:41.341Z,24.83
2023-02-21T07:50:11.820Z,23.15
2023-02-21T07:52:39.849Z,21.85
2023-02-21T07:55:08.103Z,24.60
2023-02-21T07:57:36.441Z,23.13
2023-02-21T08:00:05.475Z,21.77
2023-02-21T08:02:41.199Z,17.95
2023-02-21T08:05:11.050Z,19.58
2023-02-21T08:07:39.091Z,20.20
2023-02-21T08:10:07.858Z,20.92
2023-02-21T08:12:35.910Z,19.38
2023-02-21T08:15:04.969Z,20.90
2023-02-21T08:17:32.927Z,19.77
2023-02-21T08:20:00.822Z,19.40
2023-02-21T08:22:30.191Z,19.95
2023-02-21T08:24:58.172Z,22.55
2023-02-21T08:27:26.079Z,20.00
2023-02-21T08:29:54.291Z,20.80
2023-02-21T08:32:22.567Z,21.17
2023-02-21T08:34:50.885Z,20.33
2023-02-21T08:37:20.341Z,20.05
2023-02-21T08:39:52.131Z,21.00
2023-02-21T08:42:20.299Z,20.08
2023-02-21T08:44:48.763Z,21.63
2023-02-21T08:47:17.917Z,21.70
2023-02-21T08:49:47.387Z,20.15
2023-02-21T08:52:16.555Z,20.48
2023-02-21T08:54:45.057Z,21.17
2023-02-21T08:57:14.910Z,24.48
2023-02-21T08:59:45.045Z,24.15
2023-02-21T09:02:17.131Z,22.70
2023-02-21T09:04:45.470Z,23.50
2023-02-21T09:07:14.283Z,21.58
2023-02-21T09:09:42.389Z,23.45
2023-02-21T09:12:10.681Z,23.88
2023-02-21T09:14:42.212Z,22.35
2023-02-21T09:17:12.854Z,19.83
2023-02-21T09:19:41.634Z,20.25
2023-02-21T09:22:10.371Z,21.48
2023-02-21T09:24:39.178Z,21.83
2023-02-21T09:27:07.958Z,20.85
2023-02-21T09:29:45.834Z,22.58
2023-02-21T09:32:15.975Z,20.90
2023-02-21T09:34:43.936Z,25.75
2023-02-21T09:37:11.874Z,24.70
2023-02-21T09:39:40.492Z,24.42
2023-02-21T09:42:08.596Z,23.50
2023-02-21T09:44:36.865Z,27.40
2023-02-21T09:47:07.609Z,22.98
2023-02-21T09:49:40.256Z,26.10
2023-02-21T09:52:17.111Z,30.35
2023-02-21T09:54:52.028Z,23.98
2023-02-21T09:57:20.202Z,28.17
2023-02-21T09:59:49.919Z,29.38
2023-02-21T10:02:37.450Z,29.60
2023-02-21T10:05:19.460Z,26.83
2023-02-21T10:07:56.559Z,20.65
2023-02-21T10:10:30.705Z,19.05
2023-02-21T10:13:07.975Z,20.40
2023-02-21T10:15:47.236Z,28.88
2023-02-21T10:18:26.723Z,13.90
2023-02-21T10:20:59.520Z,16.77
2023-02-21T10:23:33.138Z,20.92
2023-02-21T10:26:07.450Z,15.80
2023-02-21T10:28:35.401Z,8.52
2023-02-21T10:31:09.250Z,7.70
2023-02-21T10:33:39.707Z,11.18
2023-02-21T10:36:19.535Z,9.43
2023-02-21T10:38:56.158Z,9.38
2023-02-21T10:41:26.398Z,5.10
2023-02-21T10:44:01.229Z,4.70
2023-02-21T10:46:34.258Z,8.90
2023-02-21T10:49:24.894Z,7.68
2023-02-21T10:52:07.769Z,4.63
2023-02-21T10:54:35.876Z,6.32
2023-02-21T10:57:06.060Z,4.53
2023-02-21T10:59:36.640Z,8.85
2023-02-21T11:02:25.856Z,5.50
2023-02-21T11:04:56.533Z,7.70
2023-02-21T11:07:26.172Z,5.22
2023-02-21T11:09:55.725Z,8.32
2023-02-21T11:12:25.948Z,6.40
2023-02-21T11:15:17.925Z,6.70
2023-02-21T11:17:47.091Z,6.13
2023-02-21T11:20:23.536Z,6.90
2023-02-21T11:22:53.274Z,8.63
2023-02-21T11:25:28.201Z,5.05
2023-02-21T11:28:08.678Z,7.05
2023-02-21T11:30:38.401Z,5.63
2023-02-21T11:33:09.000Z,7.00
2023-02-21T11:35:40.824Z,12.32
2023-02-21T11:38:36.586Z,10.68
2023-02-21T11:41:16.271Z,8.63
2023-02-21T11:43:48.177Z,6.22
2023-02-21T11:46:22.577Z,6.75
2023-02-21T11:49:02.029Z,7.68
2023-02-21T11:51:39.542Z,12.77
2023-02-21T11:54:09.202Z,14.70
2023-02-21T11:56:47.923Z,13.95
2023-02-21T11:59:36.801Z,14.30
2023-02-21T12:02:27.883Z,12.50
2023-02-21T12:05:10.992Z,13.02
2023-02-21T12:07:49.380Z,9.30
2023-02-21T12:10:42.368Z,7.18
2023-02-21T12:13:22.751Z,6.45
2023-02-21T12:15:58.702Z,7.78
2023-02-21T12:18:40.434Z,10.80
2023-02-21T12:21:28.135Z,9.80
2023-02-21T12:24:04.529Z,10.15
2023-02-21T12:26:49.796Z,9.82
2023-02-21T12:29:31.860Z,9.73
2023-02-21T12:32:26.292Z,9.52
2023-02-21T12:35:15.588Z,9.85
2023-02-21T12:37:51.379Z,9.88
2023-02-21T12:40:24.713Z,92.50
2023-02-21T12:43:06.337Z,136.52
2023-02-21T12:45:48.725Z,94.47
2023-02-21T12:48:22.438Z,72.85
2023-02-21T12:50:53.994Z,47.88
2023-02-21T12:53:27.062Z,37.72
2023-02-21T12:56:03.796Z,34.30
2023-02-21T12:58:38.457Z,44.88
2023-02-21T13:01:10.738Z,24.10
2023-02-21T13:03:46.806Z,20.90
2023-02-21T13:06:22.103Z,20.77
2023-02-21T13:09:00.135Z,18.58
2023-02-21T13:11:36.583Z,17.10
2023-02-21T13:14:11.224Z,21.67
2023-02-21T13:16:39.459Z,18.75
2023-02-21T13:19:11.566Z,18.92
2023-02-21T13:22:00.670Z,18.63
2023-02-21T13:24:44.021Z,20.73
2023-02-21T13:27:42.072Z,18.02
2023-02-21T13:30:18.941Z,22.92
2023-02-21T13:32:54.169Z,13.57
2023-02-21T13:35:28.491Z,18.05
2023-02-21T13:37:57.476Z,16.77
2023-02-21T13:40:32.854Z,23.55
2023-02-21T13:43:14.151Z,24.25
2023-02-21T13:45:45.679Z,21.30
2023-02-21T13:48:31.739Z,16.13
2023-02-21T13:51:01.603Z,12.85
2023-02-21T13:53:35.484Z,13.27
2023-02-21T13:56:18.217Z,22.08
2023-02-21T13:58:47.215Z,22.45
2023-02-21T14:01:25.149Z,17.42
2023-02-21T14:03:58.321Z,20.55
2023-02-21T14:06:38.497Z,33.78
2023-02-21T14:09:11.853Z,40.15
2023-02-21T14:11:45.170Z,44.95
2023-02-21T14:14:30.794Z,37.97
2023-02-21T14:17:06.097Z,37.30
2023-02-21T14:19:37.225Z,36.08
2023-02-21T14:22:12.538Z,41.67
2023-02-21T14:24:44.670Z,39.85
2023-02-21T14:27:32.877Z,30.63
2023-02-21T14:30:34.835Z,22.65
2023-02-21T14:33:23.274Z,19.75
2023-02-21T14:36:00.822Z,28.25
2023-02-21T14:38:41.596Z,26.95
2023-02-21T14:41:22.624Z,28.10
2023-02-21T14:44:19.041Z,30.70
2023-02-21T14:47:12.002Z,29.45
2023-02-21T14:50:00.388Z,25.30
2023-02-21T14:52:44.059Z,25.50
2023-02-21T14:55:36.131Z,30.13
2023-02-21T14:58:28.806Z,24.75
2023-02-21T15:01:07.122Z,25.70
2023-02-21T15:03:39.126Z,24.33
2023-02-21T15:06:13.967Z,18.00
2023-02-21T15:08:44.369Z,19.10
2023-02-21T15:11:27.326Z,18.75
2023-02-21T15:14:23.890Z,22.67
2023-02-21T15:16:55.206Z,32.15
2023-02-21T15:19:28.853Z,29.90
2023-02-21T15:22:26.120Z,33.13
2023-02-21T15:25:14.372Z,34.95
2023-02-21T15:28:01.781Z,36.15
2023-02-21T15:30:41.348Z,38.45
2023-02-21T15:33:16.809Z,41.05
2023-02-21T15:35:50.479Z,43.42
2023-02-21T15:38:26.954Z,39.92
2023-02-21T15:40:58.348Z,32.22
2023-02-21T15:43:43.414Z,45.50
2023-02-21T15:46:17.531Z,51.85
2023-02-21T15:48:45.800Z,49.90
2023-02-21T15:51:14.591Z,50.45
2023-02-21T15:53:44.356Z,40.97
2023-02-21T15:56:25.402Z,41.38
2023-02-21T15:59:21.222Z,51.58
2023-02-21T16:02:17.670Z,62.97
2023-02-21T16:04:47.591Z,60.80
2023-02-21T16:07:19.043Z,61.90
2023-02-21T16:09:50.487Z,51.42
2023-02-21T16:12:32.287Z,48.97
2023-02-21T16:15:02.637Z,46.72
2023-02-21T16:17:33.223Z,31.27
2023-02-21T16:20:05.098Z,26.45
2023-02-21T16:22:54.039Z,27.77
2023-02-21T16:25:25.958Z,24.30
2023-02-21T16:27:55.688Z,25.00
2023-02-21T16:30:25.894Z,25.85
2023-02-21T16:32:55.828Z,49.28
2023-02-21T16:35:25.791Z,55.30
2023-02-21T16:37:55.084Z,51.10
2023-02-21T16:40:26.905Z,42.63
2023-02-21T16:42:57.039Z,22.73
2023-02-21T16:45:25.635Z,24.85
2023-02-21T16:47:58.599Z,23.90
2023-02-21T16:50:29.918Z,24.15
2023-02-21T16:52:58.154Z,26.48
2023-02-21T16:55:27.967Z,28.70
2023-02-21T16:57:58.364Z,28.83
2023-02-21T17:00:26.656Z,28.10
2023-02-21T17:02:55.030Z,28.98
2023-02-21T17:05:23.421Z,28.42
2023-02-21T17:07:53.075Z,22.63
2023-02-21T17:10:21.639Z,22.70
2023-02-21T17:12:51.084Z,22.08
2023-02-21T17:15:21.666Z,23.40
2023-02-21T17:17:53.364Z,20.40
2023-02-21T17:20:22.676Z,22.40
2023-02-21T17:22:50.818Z,23.42
2023-02-21T17:25:19.556Z,24.20
2023-02-21T17:27:47.592Z,23.48
2023-02-21T17:30:18.971Z,22.58
2023-02-21T17:32:47.818Z,24.00
2023-02-21T17:35:16.440Z,22.63
2023-02-21T17:37:45.033Z,22.00
2023-02-21T17:40:13.204Z,22.20
2023-02-21T17:42:41.590Z,22.65
2023-02-21T17:45:10.841Z,20.05
2023-02-21T17:47:40.371Z,20.35
2023-02-21T17:50:09.013Z,21.33
2023-02-21T17:52:36.998Z,20.23
2023-02-21T17:55:08.033Z,18.77
2023-02-21T17:57:38.047Z,20.33
2023-02-21T18:00:10.015Z,23.63
2023-02-21T18:02:38.707Z,20.65
2023-02-21T18:05:09.479Z,21.42
2023-02-21T18:07:37.612Z,22.75
2023-02-21T18:10:06.861Z,21.25
2023-02-21T18:12:35.310Z,21.15
2023-02-21T18:15:03.685Z,22.65
2023-02-21T18:17:31.736Z,24.08
2023-02-21T18:19:59.709Z,25.77
2023-02-21T18:22:29.003Z,29.48
2023-02-21T18:24:57.007Z,27.33
2023-02-21T18:27:24.904Z,32.17
2023-02-21T18:29:55.977Z,32.50
2023-02-21T18:32:24.225Z,31.38
2023-02-21T18:34:52.300Z,33.58
2023-02-21T18:37:21.071Z,34.83
2023-02-21T18:39:54.087Z,35.58
2023-02-21T18:42:24.031Z,34.17
2023-02-21T18:44:52.631Z,32.67
2023-02-21T18:47:21.128Z,35.70
2023-02-21T18:49:49.739Z,37.95
2023-02-21T18:52:18.321Z,39.88
2023-02-21T18:54:48.723Z,34.55
2023-02-21T18:57:19.880Z,38.28
2023-02-21T18:59:47.973Z,39.38
2023-02-21T19:02:18.741Z,32.30
2023-02-21T19:04:47.412Z,42.38
2023-02-21T19:07:18.050Z,36.88
2023-02-21T19:09:48.866Z,28.55
2023-02-21T19:12:18.745Z,30.88
2023-02-21T19:14:46.667Z,29.90
2023-02-21T19:17:14.674Z,27.02
2023-02-21T19:19:42.704Z,25.65
2023-02-21T19:22:10.735Z,24.63
2023-02-21T19:24:38.650Z,23.15
2023-02-21T19:27:06.629Z,22.73
2023-02-21T19:29:36.076Z,21.65
2023-02-21T19:32:04.091Z,24.08
2023-02-21T19:34:32.074Z,21.83
2023-02-21T19:37:00.008Z,21.92
2023-02-21T19:39:28.480Z,23.23
2023-02-21T19:41:56.691Z,22.98
2023-02-21T19:44:24.677Z,23.55
2023-02-21T19:46:54.059Z,23.05
2023-02-21T19:49:22.127Z,23.52
2023-02-21T19:51:52.122Z,23.38
2023-02-21T19:54:21.609Z,23.10
2023-02-21T19:56:50.131Z,26.38
2023-02-21T19:59:19.318Z,26.00
2023-02-21T20:01:47.265Z,31.13
2023-02-21T20:04:18.765Z,30.38
2023-02-21T20:06:48.225Z,33.20
2023-02-21T20:09:16.425Z,23.60
2023-02-21T20:11:45.255Z,21.67
2023-02-21T20:14:13.415Z,23.02
2023-02-21T20:16:42.660Z,34.42
2023-02-21T20:19:11.316Z,21.83
2023-02-21T20:21:41.028Z,20.20
2023-02-21T20:24:10.332Z,17.65
2023-02-21T20:26:38.999Z,24.10
2023-02-21T20:29:07.239Z,33.97
2023-02-21T20:31:37.407Z,17.50
2023-02-21T20:34:06.978Z,22.88
2023-02-21T20:36:37.932Z,18.10
2023-02-21T20:39:09.485Z,23.02
2023-02-21T20:41:39.213Z,19.38
2023-02-21T20:44:07.490Z,13.43
2023-02-21T20:46:37.143Z,24.42
2023-02-21T20:49:07.043Z,16.50
2023-02-21T20:51:38.889Z,19.23
2023-02-21T20:54:11.021Z,25.83
2023-02-21T20:56:41.653Z,28.25
2023-02-21T20:59:15.879Z,26.55
2023-02-21T21:01:48.265Z,33.45
2023-02-21T21:04:18.623Z,33.75
2023-02-21T21:06:47.621Z,28.67
2023-02-21T21:09:18.085Z,23.75
2023-02-21T21:11:46.592Z,20.27
2023-02-21T21:14:16.345Z,19.85
2023-02-21T21:16:45.780Z,20.20
2023-02-21T21:19:13.786Z,18.17
2023-02-21T21:21:42.383Z,21.08
2023-02-21T21:24:11.654Z,21.30
2023-02-21T21:26:50.939Z,21.67
2023-02-21T21:29:19.122Z,22.85
2023-02-21T21:31:50.608Z,25.02
2023-02-21T21:34:23.013Z,30.42
2023-02-21T21:36:51.478Z,30.60
2023-02-21T21:39:23.304Z,34.72
2023-02-21T21:41:54.519Z,34.58
2023-02-21T21:44:24.016Z,34.70
2023-02-21T21:46:53.620Z,31.50
2023-02-21T21:49:23.306Z,33.67
2023-02-21T21:51:51.317Z,32.05
2023-02-21T21:54:21.631Z,33.35
2023-02-21T21:56:49.893Z,33.97
2023-02-21T21:59:20.321Z,31.08
2023-02-21T22:01:49.044Z,31.15
2023-02-21T22:04:17.184Z,29.60
2023-02-21T22:06:45.633Z,30.80
2023-02-21T22:09:15.298Z,30.27
2023-02-21T22:11:45.455Z,30.45
2023-02-21T22:14:13.768Z,30.73
2023-02-21T22:16:44.609Z,41.63
2023-02-21T22:19:12.783Z,42.28
2023-02-21T22:21:42.335Z,38.28
2023-02-21T22:24:11.458Z,40.40
2023-02-21T22:26:39.808Z,43.00
2023-02-21T22:29:08.260Z,41.38
2023-02-21T22:31:36.551Z,38.72
2023-02-21T22:34:05.883Z,33.60
2023-02-21T22:36:36.817Z,32.90
2023-02-21T22:39:11.131Z,32.35
2023-02-21T22:41:39.930Z,30.00
2023-02-21T22:44:08.115Z,33.95
2023-02-21T22:46:41.737Z,28.25
2023-02-21T22:49:11.468Z,26.27
2023-02-21T22:51:39.751Z,29.67
2023-02-21T22:54:07.682Z,27.30
2023-02-21T22:56:38.503Z,29.27
2023-02-21T22:59:08.689Z,29.60
2023-02-21T23:01:37.992Z,27.38
2023-02-21T23:04:16.102Z,24.98
2023-02-21T23:06:46.207Z,24.25
2023-02-21T23:09:14.982Z,25.48
2023-02-21T23:11:47.252Z,24.83
2023-02-21T23:14:16.083Z,26.88
2023-02-21T23:16:44.299Z,26.35
2023-02-21T23:19:12.876Z,22.35
2023-02-21T23:21:47.171Z,22.15
2023-02-21T23:24:15.924Z,18.30
2023-02-21T23:26:46.611Z,18.10
2023-02-21T23:29:16.235Z,19.73
2023-02-21T23:31:44.391Z,21.45
2023-02-21T23:34:12.728Z,21.50
2023-02-21T23:36:41.162Z,21.63
2023-02-21T23:39:12.480Z,21.10
2023-02-21T23:41:41.576Z,22.90
2023-02-21T23:44:11.144Z,21.38
2023-02-21T23:46:42.437Z,20.42
2023-02-21T23:49:15.605Z,21.65
2023-02-21T23:51:44.949Z,22.42
2023-02-21T23:54:15.147Z,21.45
2023-02-21T23:56:47.037Z,20.38
2023-02-21T23:59:16.177Z,20.70
